sensor_id;sensor_type;location;lat;lon;timestamp;P1;durP1;ratioP1;P2;durP2;ratioP2
14116;SDS011;7137;51.436;6.544;2023-02-28T00:01:25;8.47;;;4.80;;
14116;SDS011;7137;51.436;6.544;2023-02-28T00:04:27;8.27;;;4.70;;
14116;SDS011;7137;51.436;6.544;2023-02-28T00:07:28;8.73;;;5.17;;
14116;SDS011;7137;51.436;6.544;2023-02-28T00:10:31;8.40;;;5.03;;
14116;SDS011;7137;51.436;6.544;2023-02-28T00:13:33;7.87;;;5.10;;
14116;SDS011;7137;51.436;6.544;2023-02-28T00:16:37;8.00;;;5.17;;
14116;SDS011;7137;51.436;6.544;2023-02-28T00:19:39;7.33;;;4.80;;
14116;SDS011;7137;51.436;6.544;2023-02-28T00:22:42;8.33;;;5.00;;
14116;SDS011;7137;51.436;6.544;2023-02-28T00:25:45;7.47;;;4.90;;
14116;SDS011;7137;51.436;6.544;2023-02-28T00:28:46;8.27;;;5.13;;
14116;SDS011;7137;51.436;6.544;2023-02-28T00:31:49;8.00;;;4.57;;
14116;SDS011;7137;51.436;6.544;2023-02-28T00:34:51;7.87;;;4.77;;
14116;SDS011;7137;51.436;6.544;2023-02-28T00:37:53;7.77;;;5.00;;
14116;SDS011;7137;51.436;6.544;2023-02-28T00:40:54;8.00;;;4.90;;
14116;SDS011;7137;51.436;6.544;2023-02-28T00:43:56;8.07;;;5.10;;
14116;SDS011;7137;51.436;6.544;2023-02-28T00:46:59;8.30;;;4.97;;
14116;SDS011;7137;51.436;6.544;2023-02-28T00:50:05;9.07;;;4.93;;
14116;SDS011;7137;51.436;6.544;2023-02-28T00:53:07;7.33;;;4.70;;
14116;SDS011;7137;51.436;6.544;2023-02-28T00:56:09;9.23;;;4.77;;
14116;SDS011;7137;51.436;6.544;2023-02-28T00:59:10;8.47;;;4.73;;
14116;SDS011;7137;51.436;6.544;2023-02-28T01:02:13;8.23;;;4.93;;
14116;SDS011;7137;51.436;6.544;2023-02-28T01:05:15;6.33;;;4.20;;
14116;SDS011;7137;51.436;6.544;2023-02-28T01:08:16;7.83;;;4.37;;
14116;SDS011;7137;51.436;6.544;2023-02-28T01:11:18;7.53;;;4.60;;
14116;SDS011;7137;51.436;6.544;2023-02-28T01:14:20;7.67;;;4.23;;
14116;SDS011;7137;51.436;6.544;2023-02-28T01:17:23;7.57;;;4.40;;
14116;SDS011;7137;51.436;6.544;2023-02-28T01:20:24;8.13;;;4.23;;
14116;SDS011;7137;51.436;6.544;2023-02-28T01:23:26;8.37;;;4.33;;
14116;SDS011;7137;51.436;6.544;2023-02-28T01:26:27;7.23;;;4.20;;
14116;SDS011;7137;51.436;6.544;2023-02-28T01:29:29;8.87;;;4.60;;
14116;SDS011;7137;51.436;6.544;2023-02-28T01:32:32;7.43;;;4.43;;
14116;SDS011;7137;51.436;6.544;2023-02-28T01:35:33;7.30;;;4.40;;
14116;SDS011;7137;51.436;6.544;2023-02-28T01:38:36;6.87;;;4.27;;
14116;SDS011;7137;51.436;6.544;2023-02-28T01:41:37;7.13;;;4.57;;
14116;SDS011;7137;51.436;6.544;2023-02-28T01:44:56;7.03;;;4.23;;
14116;SDS011;7137;51.436;6.544;2023-02-28T01:48:06;7.33;;;4.27;;
14116;SDS011;7137;51.436;6.544;2023-02-28T01:51:10;6.57;;;4.47;;
14116;SDS011;7137;51.436;6.544;2023-02-28T01:54:16;6.77;;;3.97;;
14116;SDS011;7137;51.436;6.544;2023-02-28T01:57:20;7.83;;;4.17;;
14116;SDS011;7137;51.436;6.544;2023-02-28T02:00:26;7.10;;;4.30;;
14116;SDS011;7137;51.436;6.544;2023-02-28T02:03:31;9.47;;;4.60;;
14116;SDS011;7137;51.436;6.544;2023-02-28T02:06:34;9.33;;;4.50;;
14116;SDS011;7137;51.436;6.544;2023-02-28T02:09:39;6.67;;;4.13;;
14116;SDS011;7137;51.436;6.544;2023-02-28T02:12:55;6.97;;;4.07;;
14116;SDS011;7137;51.436;6.544;2023-02-28T02:16:23;6.47;;;3.83;;
14116;SDS011;7137;51.436;6.544;2023-02-28T02:23:31;7.33;;;4.10;;
14116;SDS011;7137;51.436;6.544;2023-02-28T02:26:49;7.37;;;3.80;;
14116;SDS011;7137;51.436;6.544;2023-02-28T02:33:39;5.90;;;3.50;;
14116;SDS011;7137;51.436;6.544;2023-02-28T02:37:02;8.30;;;3.80;;
14116;SDS011;7137;51.436;6.544;2023-02-28T02:40:14;6.60;;;3.47;;
14116;SDS011;7137;51.436;6.544;2023-02-28T02:43:20;6.90;;;3.83;;
14116;SDS011;7137;51.436;6.544;2023-02-28T02:46:28;6.17;;;3.67;;
14116;SDS011;7137;51.436;6.544;2023-02-28T02:49:32;7.60;;;3.50;;
14116;SDS011;7137;51.436;6.544;2023-02-28T02:52:38;6.70;;;3.87;;
14116;SDS011;7137;51.436;6.544;2023-02-28T02:55:43;6.97;;;4.00;;
14116;SDS011;7137;51.436;6.544;2023-02-28T02:58:53;5.60;;;3.33;;
14116;SDS011;7137;51.436;6.544;2023-02-28T03:01:59;6.37;;;3.70;;
14116;SDS011;7137;51.436;6.544;2023-02-28T03:05:06;6.73;;;3.70;;
14116;SDS011;7137;51.436;6.544;2023-02-28T03:08:15;6.70;;;3.73;;
14116;SDS011;7137;51.436;6.544;2023-02-28T03:11:17;7.77;;;3.77;;
14116;SDS011;7137;51.436;6.544;2023-02-28T03:14:23;7.50;;;3.80;;
14116;SDS011;7137;51.436;6.544;2023-02-28T03:17:45;6.77;;;3.90;;
14116;SDS011;7137;51.436;6.544;2023-02-28T03:21:00;6.93;;;4.07;;
14116;SDS011;7137;51.436;6.544;2023-02-28T03:24:14;7.67;;;4.00;;
14116;SDS011;7137;51.436;6.544;2023-02-28T03:27:21;8.00;;;3.83;;
14116;SDS011;7137;51.436;6.544;2023-02-28T03:30:27;7.43;;;3.60;;
14116;SDS011;7137;51.436;6.544;2023-02-28T03:33:38;7.70;;;3.87;;
14116;SDS011;7137;51.436;6.544;2023-02-28T03:36:45;7.40;;;4.17;;
14116;SDS011;7137;51.436;6.544;2023-02-28T03:39:51;6.97;;;3.70;;
14116;SDS011;7137;51.436;6.544;2023-02-28T03:42:59;6.43;;;4.07;;
14116;SDS011;7137;51.436;6.544;2023-02-28T03:46:05;6.50;;;4.10;;
14116;SDS011;7137;51.436;6.544;2023-02-28T03:49:11;8.27;;;3.93;;
14116;SDS011;7137;51.436;6.544;2023-02-28T03:52:19;6.53;;;4.17;;
14116;SDS011;7137;51.436;6.544;2023-02-28T03:55:27;7.43;;;4.20;;
14116;SDS011;7137;51.436;6.544;2023-02-28T03:58:35;7.50;;;4.10;;
14116;SDS011;7137;51.436;6.544;2023-02-28T04:01:43;7.23;;;4.27;;
14116;SDS011;7137;51.436;6.544;2023-02-28T04:04:47;9.57;;;4.53;;
14116;SDS011;7137;51.436;6.544;2023-02-28T04:07:50;7.30;;;4.47;;
14116;SDS011;7137;51.436;6.544;2023-02-28T04:10:54;7.50;;;4.50;;
14116;SDS011;7137;51.436;6.544;2023-02-28T04:14:02;6.70;;;4.17;;
14116;SDS011;7137;51.436;6.544;2023-02-28T04:17:04;6.90;;;4.00;;
14116;SDS011;7137;51.436;6.544;2023-02-28T04:20:06;7.90;;;4.40;;
14116;SDS011;7137;51.436;6.544;2023-02-28T04:23:12;7.23;;;3.90;;
14116;SDS011;7137;51.436;6.544;2023-02-28T04:26:13;7.30;;;4.37;;
14116;SDS011;7137;51.436;6.544;2023-02-28T04:29:17;5.93;;;3.97;;
14116;SDS011;7137;51.436;6.544;2023-02-28T04:32:20;6.93;;;4.20;;
14116;SDS011;7137;51.436;6.544;2023-02-28T04:35:21;6.77;;;3.90;;
14116;SDS011;7137;51.436;6.544;2023-02-28T04:38:24;7.97;;;4.10;;
14116;SDS011;7137;51.436;6.544;2023-02-28T04:41:26;6.93;;;4.00;;
14116;SDS011;7137;51.436;6.544;2023-02-28T04:44:28;7.30;;;4.00;;
14116;SDS011;7137;51.436;6.544;2023-02-28T04:47:29;7.00;;;3.97;;
14116;SDS011;7137;51.436;6.544;2023-02-28T04:50:31;7.17;;;4.33;;
14116;SDS011;7137;51.436;6.544;2023-02-28T04:53:34;6.87;;;3.43;;
14116;SDS011;7137;51.436;6.544;2023-02-28T04:56:36;6.40;;;4.00;;
14116;SDS011;7137;51.436;6.544;2023-02-28T04:59:38;6.73;;;3.60;;
14116;SDS011;7137;51.436;6.544;2023-02-28T05:02:40;7.30;;;4.10;;
14116;SDS011;7137;51.436;6.544;2023-02-28T05:05:41;6.97;;;3.60;;
14116;SDS011;7137;51.436;6.544;2023-02-28T05:08:44;6.60;;;3.80;;
14116;SDS011;7137;51.436;6.544;2023-02-28T05:11:45;5.37;;;3.40;;
14116;SDS011;7137;51.436;6.544;2023-02-28T05:14:47;7.23;;;3.80;;
14116;SDS011;7137;51.436;6.544;2023-02-28T05:17:49;8.73;;;3.53;;
14116;SDS011;7137;51.436;6.544;2023-02-28T05:20:50;6.40;;;3.80;;
14116;SDS011;7137;51.436;6.544;2023-02-28T05:23:53;6.47;;;3.63;;
14116;SDS011;7137;51.436;6.544;2023-02-28T05:26:56;6.50;;;3.80;;
14116;SDS011;7137;51.436;6.544;2023-02-28T05:29:58;7.50;;;3.60;;
14116;SDS011;7137;51.436;6.544;2023-02-28T05:33:02;7.13;;;3.70;;
14116;SDS011;7137;51.436;6.544;2023-02-28T05:36:04;7.53;;;3.90;;
14116;SDS011;7137;51.436;6.544;2023-02-28T05:39:08;7.03;;;3.70;;
14116;SDS011;7137;51.436;6.544;2023-02-28T05:42:13;7.33;;;3.77;;
14116;SDS011;7137;51.436;6.544;2023-02-28T05:45:15;6.40;;;3.60;;
14116;SDS011;7137;51.436;6.544;2023-02-28T05:48:17;6.57;;;3.47;;
14116;SDS011;7137;51.436;6.544;2023-02-28T05:51:18;5.10;;;3.40;;
14116;SDS011;7137;51.436;6.544;2023-02-28T05:54:21;7.20;;;3.60;;
14116;SDS011;7137;51.436;6.544;2023-02-28T05:57:23;6.17;;;3.73;;
14116;SDS011;7137;51.436;6.544;2023-02-28T06:00:25;8.90;;;3.73;;
14116;SDS011;7137;51.436;6.544;2023-02-28T06:03:26;9.00;;;4.00;;
14116;SDS011;7137;51.436;6.544;2023-02-28T06:06:29;10.80;;;4.07;;
14116;SDS011;7137;51.436;6.544;2023-02-28T06:09:32;6.70;;;4.10;;
14116;SDS011;7137;51.436;6.544;2023-02-28T06:12:34;9.87;;;3.73;;
14116;SDS011;7137;51.436;6.544;2023-02-28T06:15:36;6.03;;;3.87;;
14116;SDS011;7137;51.436;6.544;2023-02-28T06:18:38;8.77;;;3.60;;
14116;SDS011;7137;51.436;6.544;2023-02-28T06:21:40;6.53;;;3.30;;
14116;SDS011;7137;51.436;6.544;2023-02-28T06:24:43;9.77;;;4.03;;
14116;SDS011;7137;51.436;6.544;2023-02-28T06:27:44;11.03;;;3.50;;
14116;SDS011;7137;51.436;6.544;2023-02-28T06:30:46;6.83;;;4.03;;
14116;SDS011;7137;51.436;6.544;2023-02-28T06:33:47;8.50;;;3.80;;
14116;SDS011;7137;51.436;6.544;2023-02-28T06:36:50;6.47;;;3.27;;
14116;SDS011;7137;51.436;6.544;2023-02-28T06:39:54;8.03;;;3.70;;
14116;SDS011;7137;51.436;6.544;2023-02-28T06:42:56;12.27;;;3.70;;
14116;SDS011;7137;51.436;6.544;2023-02-28T06:45:58;9.40;;;3.93;;
14116;SDS011;7137;51.436;6.544;2023-02-28T06:49:01;7.47;;;3.67;;
14116;SDS011;7137;51.436;6.544;2023-02-28T06:52:03;11.03;;;4.37;;
14116;SDS011;7137;51.436;6.544;2023-02-28T06:55:07;9.17;;;4.13;;
14116;SDS011;7137;51.436;6.544;2023-02-28T06:58:09;7.77;;;3.70;;
14116;SDS011;7137;51.436;6.544;2023-02-28T07:01:15;7.17;;;3.50;;
14116;SDS011;7137;51.436;6.544;2023-02-28T07:04:17;7.33;;;3.60;;
14116;SDS011;7137;51.436;6.544;2023-02-28T07:07:19;6.30;;;3.57;;
14116;SDS011;7137;51.436;6.544;2023-02-28T07:10:22;6.83;;;3.73;;
14116;SDS011;7137;51.436;6.544;2023-02-28T07:13:23;6.73;;;3.73;;
14116;SDS011;7137;51.436;6.544;2023-02-28T07:16:25;8.20;;;4.10;;
14116;SDS011;7137;51.436;6.544;2023-02-28T07:19:27;7.90;;;4.40;;
14116;SDS011;7137;51.436;6.544;2023-02-28T07:22:29;6.60;;;3.63;;
14116;SDS011;7137;51.436;6.544;2023-02-28T07:25:32;6.33;;;3.80;;
14116;SDS011;7137;51.436;6.544;2023-02-28T07:28:33;7.80;;;3.50;;
14116;SDS011;7137;51.436;6.544;2023-02-28T07:31:35;7.60;;;4.00;;
14116;SDS011;7137;51.436;6.544;2023-02-28T07:34:36;8.00;;;3.70;;
14116;SDS011;7137;51.436;6.544;2023-02-28T07:37:38;6.87;;;3.63;;
14116;SDS011;7137;51.436;6.544;2023-02-28T07:40:42;6.60;;;3.83;;
14116;SDS011;7137;51.436;6.544;2023-02-28T07:43:44;7.73;;;3.77;;
14116;SDS011;7137;51.436;6.544;2023-02-28T07:46:46;6.00;;;3.40;;
14116;SDS011;7137;51.436;6.544;2023-02-28T07:49:47;9.03;;;3.60;;
14116;SDS011;7137;51.436;6.544;2023-02-28T07:52:49;6.57;;;3.47;;
14116;SDS011;7137;51.436;6.544;2023-02-28T07:55:52;6.83;;;3.70;;
14116;SDS011;7137;51.436;6.544;2023-02-28T07:58:56;8.27;;;3.50;;
14116;SDS011;7137;51.436;6.544;2023-02-28T08:01:57;6.70;;;3.83;;
14116;SDS011;7137;51.436;6.544;2023-02-28T08:04:59;9.10;;;3.50;;
14116;SDS011;7137;51.436;6.544;2023-02-28T08:08:01;6.23;;;3.70;;
14116;SDS011;7137;51.436;6.544;2023-02-28T08:11:04;7.27;;;3.50;;
14116;SDS011;7137;51.436;6.544;2023-02-28T08:14:06;7.57;;;3.27;;
14116;SDS011;7137;51.436;6.544;2023-02-28T08:17:07;7.27;;;3.10;;
14116;SDS011;7137;51.436;6.544;2023-02-28T08:20:11;7.20;;;2.90;;
14116;SDS011;7137;51.436;6.544;2023-02-28T08:23:13;7.13;;;3.07;;
14116;SDS011;7137;51.436;6.544;2023-02-28T08:26:16;7.53;;;3.03;;
14116;SDS011;7137;51.436;6.544;2023-02-28T08:29:18;7.90;;;3.17;;
14116;SDS011;7137;51.436;6.544;2023-02-28T08:32:20;6.57;;;3.17;;
14116;SDS011;7137;51.436;6.544;2023-02-28T08:35:21;6.83;;;3.20;;
14116;SDS011;7137;51.436;6.544;2023-02-28T08:38:23;8.43;;;3.17;;
14116;SDS011;7137;51.436;6.544;2023-02-28T08:41:26;6.47;;;2.87;;
14116;SDS011;7137;51.436;6.544;2023-02-28T08:44:28;7.50;;;3.13;;
14116;SDS011;7137;51.436;6.544;2023-02-28T08:47:29;6.20;;;3.00;;
14116;SDS011;7137;51.436;6.544;2023-02-28T08:50:31;6.40;;;3.00;;
14116;SDS011;7137;51.436;6.544;2023-02-28T08:53:33;5.80;;;3.40;;
14116;SDS011;7137;51.436;6.544;2023-02-28T08:56:36;6.50;;;3.47;;
14116;SDS011;7137;51.436;6.544;2023-02-28T08:59:37;6.07;;;3.00;;
14116;SDS011;7137;51.436;6.544;2023-02-28T09:02:39;8.10;;;2.70;;
14116;SDS011;7137;51.436;6.544;2023-02-28T09:05:51;5.20;;;2.60;;
14116;SDS011;7137;51.436;6.544;2023-02-28T09:08:53;5.73;;;2.17;;
14116;SDS011;7137;51.436;6.544;2023-02-28T09:11:59;7.07;;;2.57;;
14116;SDS011;7137;51.436;6.544;2023-02-28T09:15:02;4.83;;;2.40;;
14116;SDS011;7137;51.436;6.544;2023-02-28T09:18:04;5.60;;;2.47;;
14116;SDS011;7137;51.436;6.544;2023-02-28T09:21:07;6.13;;;2.43;;
14116;SDS011;7137;51.436;6.544;2023-02-28T09:24:09;4.50;;;2.20;;
14116;SDS011;7137;51.436;6.544;2023-02-28T09:27:15;7.40;;;2.37;;
14116;SDS011;7137;51.436;6.544;2023-02-28T09:30:17;6.90;;;2.30;;
14116;SDS011;7137;51.436;6.544;2023-02-28T09:33:19;4.10;;;1.73;;
14116;SDS011;7137;51.436;6.544;2023-02-28T09:36:22;5.03;;;2.13;;
14116;SDS011;7137;51.436;6.544;2023-02-28T09:39:24;3.97;;;1.87;;
14116;SDS011;7137;51.436;6.544;2023-02-28T09:42:31;3.50;;;1.70;;
14116;SDS011;7137;51.436;6.544;2023-02-28T09:45:35;4.97;;;1.90;;
14116;SDS011;7137;51.436;6.544;2023-02-28T09:48:41;4.33;;;1.90;;
14116;SDS011;7137;51.436;6.544;2023-02-28T09:51:46;4.63;;;1.60;;
14116;SDS011;7137;51.436;6.544;2023-02-28T09:54:52;4.87;;;1.77;;
14116;SDS011;7137;51.436;6.544;2023-02-28T09:57:55;4.13;;;1.80;;
14116;SDS011;7137;51.436;6.544;2023-02-28T10:01:00;3.83;;;1.70;;
14116;SDS011;7137;51.436;6.544;2023-02-28T10:04:08;5.70;;;1.63;;
14116;SDS011;7137;51.436;6.544;2023-02-28T10:07:19;2.67;;;1.50;;
14116;SDS011;7137;51.436;6.544;2023-02-28T10:10:33;3.03;;;1.50;;
14116;SDS011;7137;51.436;6.544;2023-02-28T10:13:42;3.53;;;1.50;;
14116;SDS011;7137;51.436;6.544;2023-02-28T10:16:51;4.80;;;1.50;;
14116;SDS011;7137;51.436;6.544;2023-02-28T10:19:58;3.37;;;1.50;;
14116;SDS011;7137;51.436;6.544;2023-02-28T10:23:10;2.30;;;1.30;;
14116;SDS011;7137;51.436;6.544;2023-02-28T10:26:17;3.17;;;1.33;;
14116;SDS011;7137;51.436;6.544;2023-02-28T10:29:20;2.03;;;1.23;;
14116;SDS011;7137;51.436;6.544;2023-02-28T10:32:24;3.03;;;1.40;;
14116;SDS011;7137;51.436;6.544;2023-02-28T10:35:28;3.27;;;1.50;;
14116;SDS011;7137;51.436;6.544;2023-02-28T10:38:32;5.73;;;1.70;;
14116;SDS011;7137;51.436;6.544;2023-02-28T10:41:35;5.17;;;1.70;;
14116;SDS011;7137;51.436;6.544;2023-02-28T10:44:45;3.83;;;1.70;;
14116;SDS011;7137;51.436;6.544;2023-02-28T10:47:51;3.20;;;1.53;;
14116;SDS011;7137;51.436;6.544;2023-02-28T10:50:55;3.90;;;1.90;;
14116;SDS011;7137;51.436;6.544;2023-02-28T10:53:57;2.97;;;1.70;;
14116;SDS011;7137;51.436;6.544;2023-02-28T10:57:06;4.10;;;1.50;;
14116;SDS011;7137;51.436;6.544;2023-02-28T11:00:14;3.37;;;1.70;;
14116;SDS011;7137;51.436;6.544;2023-02-28T11:03:23;4.57;;;1.53;;
14116;SDS011;7137;51.436;6.544;2023-02-28T11:06:28;3.73;;;1.80;;
14116;SDS011;7137;51.436;6.544;2023-02-28T11:09:33;4.43;;;1.70;;
14116;SDS011;7137;51.436;6.544;2023-02-28T11:12:37;2.90;;;1.50;;
14116;SDS011;7137;51.436;6.544;2023-02-28T11:15:42;3.30;;;1.50;;
14116;SDS011;7137;51.436;6.544;2023-02-28T11:18:53;4.37;;;1.60;;
14116;SDS011;7137;51.436;6.544;2023-02-28T11:21:56;3.57;;;1.60;;
14116;SDS011;7137;51.436;6.544;2023-02-28T11:25:06;3.70;;;1.83;;
14116;SDS011;7137;51.436;6.544;2023-02-28T11:28:23;2.87;;;1.60;;
14116;SDS011;7137;51.436;6.544;2023-02-28T11:31:28;4.00;;;1.90;;
14116;SDS011;7137;51.436;6.544;2023-02-28T11:34:30;3.37;;;1.90;;
14116;SDS011;7137;51.436;6.544;2023-02-28T11:37:32;3.77;;;1.90;;
14116;SDS011;7137;51.436;6.544;2023-02-28T11:40:36;3.50;;;1.70;;
14116;SDS011;7137;51.436;6.544;2023-02-28T11:43:53;4.23;;;1.70;;
14116;SDS011;7137;51.436;6.544;2023-02-28T11:47:06;4.33;;;2.00;;
14116;SDS011;7137;51.436;6.544;2023-02-28T11:50:18;3.87;;;1.67;;
14116;SDS011;7137;51.436;6.544;2023-02-28T11:53:34;3.37;;;1.70;;
14116;SDS011;7137;51.436;6.544;2023-02-28T11:56:46;5.00;;;1.90;;
14116;SDS011;7137;51.436;6.544;2023-02-28T11:59:52;3.50;;;1.40;;
14116;SDS011;7137;51.436;6.544;2023-02-28T12:03:06;4.60;;;1.60;;
14116;SDS011;7137;51.436;6.544;2023-02-28T12:06:18;2.83;;;1.60;;
14116;SDS011;7137;51.436;6.544;2023-02-28T12:09:34;4.17;;;1.70;;
14116;SDS011;7137;51.436;6.544;2023-02-28T12:12:46;3.50;;;1.50;;
14116;SDS011;7137;51.436;6.544;2023-02-28T12:16:05;2.87;;;1.60;;
14116;SDS011;7137;51.436;6.544;2023-02-28T12:19:36;3.67;;;1.70;;
14116;SDS011;7137;51.436;6.544;2023-02-28T12:22:47;2.77;;;1.57;;
14116;SDS011;7137;51.436;6.544;2023-02-28T12:25:55;4.10;;;2.03;;
14116;SDS011;7137;51.436;6.544;2023-02-28T12:29:04;2.77;;;1.60;;
14116;SDS011;7137;51.436;6.544;2023-02-28T12:32:15;3.30;;;1.53;;
14116;SDS011;7137;51.436;6.544;2023-02-28T12:35:23;3.70;;;2.10;;
14116;SDS011;7137;51.436;6.544;2023-02-28T12:38:29;3.63;;;1.50;;
14116;SDS011;7137;51.436;6.544;2023-02-28T12:41:39;3.70;;;1.60;;
14116;SDS011;7137;51.436;6.544;2023-02-28T12:44:46;3.97;;;2.00;;
14116;SDS011;7137;51.436;6.544;2023-02-28T12:47:55;3.40;;;1.70;;
14116;SDS011;7137;51.436;6.544;2023-02-28T12:51:00;4.27;;;2.17;;
14116;SDS011;7137;51.436;6.544;2023-02-28T12:54:09;2.73;;;1.90;;
14116;SDS011;7137;51.436;6.544;2023-02-28T12:57:17;4.07;;;1.70;;
14116;SDS011;7137;51.436;6.544;2023-02-28T13:00:29;3.97;;;1.70;;
14116;SDS011;7137;51.436;6.544;2023-02-28T13:07:18;3.23;;;1.90;;
14116;SDS011;7137;51.436;6.544;2023-02-28T13:10:37;4.20;;;1.93;;
14116;SDS011;7137;51.436;6.544;2023-02-28T13:13:41;4.80;;;1.83;;
14116;SDS011;7137;51.436;6.544;2023-02-28T13:20:15;4.50;;;1.87;;
14116;SDS011;7137;51.436;6.544;2023-02-28T13:34:12;4.47;;;1.97;;
14116;SDS011;7137;51.436;6.544;2023-02-28T13:40:43;4.43;;;2.00;;
14116;SDS011;7137;51.436;6.544;2023-02-28T13:44:02;3.13;;;1.80;;
14116;SDS011;7137;51.436;6.544;2023-02-28T13:47:22;4.87;;;2.13;;
14116;SDS011;7137;51.436;6.544;2023-02-28T13:50:29;4.27;;;2.27;;
14116;SDS011;7137;51.436;6.544;2023-02-28T13:53:39;4.17;;;1.90;;
14116;SDS011;7137;51.436;6.544;2023-02-28T13:57:01;3.73;;;1.80;;
14116;SDS011;7137;51.436;6.544;2023-02-28T14:00:20;3.90;;;1.97;;
14116;SDS011;7137;51.436;6.544;2023-02-28T14:03:34;3.87;;;2.33;;
14116;SDS011;7137;51.436;6.544;2023-02-28T14:06:53;5.43;;;2.20;;
14116;SDS011;7137;51.436;6.544;2023-02-28T14:09:58;4.27;;;2.37;;
14116;SDS011;7137;51.436;6.544;2023-02-28T14:13:13;4.10;;;2.17;;
14116;SDS011;7137;51.436;6.544;2023-02-28T14:16:38;3.60;;;1.90;;
14116;SDS011;7137;51.436;6.544;2023-02-28T14:19:43;3.50;;;2.00;;
14116;SDS011;7137;51.436;6.544;2023-02-28T14:22:52;4.53;;;2.50;;
14116;SDS011;7137;51.436;6.544;2023-02-28T14:26:07;4.93;;;2.20;;
14116;SDS011;7137;51.436;6.544;2023-02-28T14:29:36;6.13;;;2.63;;
14116;SDS011;7137;51.436;6.544;2023-02-28T14:32:49;4.83;;;2.67;;
14116;SDS011;7137;51.436;6.544;2023-02-28T14:36:01;4.50;;;2.27;;
14116;SDS011;7137;51.436;6.544;2023-02-28T14:39:11;5.97;;;2.57;;
14116;SDS011;7137;51.436;6.544;2023-02-28T14:42:27;5.43;;;2.83;;
14116;SDS011;7137;51.436;6.544;2023-02-28T14:45:33;5.80;;;2.50;;
14116;SDS011;7137;51.436;6.544;2023-02-28T14:48:37;4.47;;;2.73;;
14116;SDS011;7137;51.436;6.544;2023-02-28T14:51:39;4.33;;;2.43;;
14116;SDS011;7137;51.436;6.544;2023-02-28T14:54:41;4.13;;;2.40;;
14116;SDS011;7137;51.436;6.544;2023-02-28T14:57:50;3.87;;;2.30;;
14116;SDS011;7137;51.436;6.544;2023-02-28T15:00:55;4.00;;;2.37;;
14116;SDS011;7137;51.436;6.544;2023-02-28T15:03:59;4.23;;;2.33;;
14116;SDS011;7137;51.436;6.544;2023-02-28T15:07:09;4.80;;;2.20;;
14116;SDS011;7137;51.436;6.544;2023-02-28T15:10:15;3.57;;;1.80;;
14116;SDS011;7137;51.436;6.544;2023-02-28T15:13:19;4.40;;;2.03;;
14116;SDS011;7137;51.436;6.544;2023-02-28T15:16:24;4.03;;;2.30;;
14116;SDS011;7137;51.436;6.544;2023-02-28T15:19:31;8.73;;;2.80;;
14116;SDS011;7137;51.436;6.544;2023-02-28T15:22:35;6.93;;;2.60;;
14116;SDS011;7137;51.436;6.544;2023-02-28T15:25:39;3.97;;;2.40;;
14116;SDS011;7137;51.436;6.544;2023-02-28T15:28:41;7.83;;;2.90;;
14116;SDS011;7137;51.436;6.544;2023-02-28T15:31:48;4.80;;;2.70;;
14116;SDS011;7137;51.436;6.544;2023-02-28T15:34:51;4.90;;;2.60;;
14116;SDS011;7137;51.436;6.544;2023-02-28T15:37:54;6.47;;;2.50;;
14116;SDS011;7137;51.436;6.544;2023-02-28T15:40:57;4.47;;;2.40;;
14116;SDS011;7137;51.436;6.544;2023-02-28T15:44:16;7.40;;;2.60;;
14116;SDS011;7137;51.436;6.544;2023-02-28T15:47:21;4.93;;;2.43;;
14116;SDS011;7137;51.436;6.544;2023-02-28T15:50:24;4.93;;;2.20;;
14116;SDS011;7137;51.436;6.544;2023-02-28T15:53:30;6.43;;;2.57;;
14116;SDS011;7137;51.436;6.544;2023-02-28T15:56:33;5.57;;;2.30;;
14116;SDS011;7137;51.436;6.544;2023-02-28T15:59:42;10.23;;;2.53;;
14116;SDS011;7137;51.436;6.544;2023-02-28T16:02:51;4.97;;;2.90;;
14116;SDS011;7137;51.436;6.544;2023-02-28T16:09:35;3.57;;;2.30;;
14116;SDS011;7137;51.436;6.544;2023-02-28T16:12:38;4.67;;;2.70;;
14116;SDS011;7137;51.436;6.544;2023-02-28T16:15:41;5.33;;;2.60;;
14116;SDS011;7137;51.436;6.544;2023-02-28T16:18:45;5.57;;;2.50;;
14116;SDS011;7137;51.436;6.544;2023-02-28T16:21:47;4.30;;;2.40;;
14116;SDS011;7137;51.436;6.544;2023-02-28T16:24:49;4.20;;;2.47;;
14116;SDS011;7137;51.436;6.544;2023-02-28T16:27:51;5.57;;;2.50;;
14116;SDS011;7137;51.436;6.544;2023-02-28T16:30:54;5.13;;;2.53;;
14116;SDS011;7137;51.436;6.544;2023-02-28T16:33:57;4.40;;;2.53;;
14116;SDS011;7137;51.436;6.544;2023-02-28T16:36:59;5.93;;;3.00;;
14116;SDS011;7137;51.436;6.544;2023-02-28T16:40:00;4.80;;;2.93;;
14116;SDS011;7137;51.436;6.544;2023-02-28T16:43:04;7.07;;;2.80;;
14116;SDS011;7137;51.436;6.544;2023-02-28T16:46:09;5.30;;;2.90;;
14116;SDS011;7137;51.436;6.544;2023-02-28T16:49:13;4.90;;;2.47;;
14116;SDS011;7137;51.436;6.544;2023-02-28T16:52:16;6.33;;;2.93;;
14116;SDS011;7137;51.436;6.544;2023-02-28T16:55:17;5.53;;;3.17;;
14116;SDS011;7137;51.436;6.544;2023-02-28T16:58:19;5.70;;;2.83;;
14116;SDS011;7137;51.436;6.544;2023-02-28T17:01:23;6.20;;;2.97;;
14116;SDS011;7137;51.436;6.544;2023-02-28T17:04:28;6.10;;;3.00;;
14116;SDS011;7137;51.436;6.544;2023-02-28T17:07:29;5.47;;;2.90;;
14116;SDS011;7137;51.436;6.544;2023-02-28T17:10:31;4.43;;;2.90;;
14116;SDS011;7137;51.436;6.544;2023-02-28T17:13:33;5.40;;;2.90;;
14116;SDS011;7137;51.436;6.544;2023-02-28T17:16:35;6.43;;;2.97;;
14116;SDS011;7137;51.436;6.544;2023-02-28T17:19:41;5.03;;;2.90;;
14116;SDS011;7137;51.436;6.544;2023-02-28T17:22:44;4.83;;;3.17;;
14116;SDS011;7137;51.436;6.544;2023-02-28T17:25:46;6.13;;;3.43;;
14116;SDS011;7137;51.436;6.544;2023-02-28T17:28:53;7.17;;;4.47;;
14116;SDS011;7137;51.436;6.544;2023-02-28T17:31:55;6.17;;;3.70;;
14116;SDS011;7137;51.436;6.544;2023-02-28T17:34:58;7.20;;;3.10;;
14116;SDS011;7137;51.436;6.544;2023-02-28T17:38:00;5.80;;;3.17;;
14116;SDS011;7137;51.436;6.544;2023-02-28T17:41:01;5.57;;;2.80;;
14116;SDS011;7137;51.436;6.544;2023-02-28T17:44:03;6.90;;;3.37;;
14116;SDS011;7137;51.436;6.544;2023-02-28T17:47:05;5.83;;;3.33;;
14116;SDS011;7137;51.436;6.544;2023-02-28T17:50:10;5.20;;;3.33;;
14116;SDS011;7137;51.436;6.544;2023-02-28T17:53:14;5.67;;;3.10;;
14116;SDS011;7137;51.436;6.544;2023-02-28T17:56:17;4.97;;;2.90;;
14116;SDS011;7137;51.436;6.544;2023-02-28T17:59:20;6.30;;;3.37;;
14116;SDS011;7137;51.436;6.544;2023-02-28T18:02:22;5.90;;;3.20;;
14116;SDS011;7137;51.436;6.544;2023-02-28T18:05:25;5.87;;;3.27;;
14116;SDS011;7137;51.436;6.544;2023-02-28T18:08:27;5.57;;;3.20;;
14116;SDS011;7137;51.436;6.544;2023-02-28T18:11:29;6.13;;;3.40;;
14116;SDS011;7137;51.436;6.544;2023-02-28T18:14:41;6.13;;;3.50;;
14116;SDS011;7137;51.436;6.544;2023-02-28T18:17:45;5.83;;;3.37;;
14116;SDS011;7137;51.436;6.544;2023-02-28T18:20:48;5.90;;;3.70;;
14116;SDS011;7137;51.436;6.544;2023-02-28T18:23:50;6.70;;;3.40;;
14116;SDS011;7137;51.436;6.544;2023-02-28T18:26:52;6.63;;;3.60;;
14116;SDS011;7137;51.436;6.544;2023-02-28T18:29:53;6.10;;;3.77;;
14116;SDS011;7137;51.436;6.544;2023-02-28T18:32:55;6.47;;;4.13;;
14116;SDS011;7137;51.436;6.544;2023-02-28T18:35:58;6.90;;;3.83;;
14116;SDS011;7137;51.436;6.544;2023-02-28T18:39:00;8.43;;;4.17;;
14116;SDS011;7137;51.436;6.544;2023-02-28T18:42:02;8.60;;;4.40;;
14116;SDS011;7137;51.436;6.544;2023-02-28T18:45:04;9.83;;;5.57;;
14116;SDS011;7137;51.436;6.544;2023-02-28T18:48:07;6.93;;;4.67;;
14116;SDS011;7137;51.436;6.544;2023-02-28T18:51:10;8.33;;;4.87;;
14116;SDS011;7137;51.436;6.544;2023-02-28T18:54:13;9.50;;;5.03;;
14116;SDS011;7137;51.436;6.544;2023-02-28T18:57:16;7.83;;;4.20;;
14116;SDS011;7137;51.436;6.544;2023-02-28T19:00:18;7.67;;;4.27;;
14116;SDS011;7137;51.436;6.544;2023-02-28T19:03:21;6.77;;;3.70;;
14116;SDS011;7137;51.436;6.544;2023-02-28T19:06:25;6.97;;;4.33;;
14116;SDS011;7137;51.436;6.544;2023-02-28T19:09:28;20.73;;;10.27;;
14116;SDS011;7137;51.436;6.544;2023-02-28T19:12:32;30.60;;;15.10;;
14116;SDS011;7137;51.436;6.544;2023-02-28T19:15:34;22.07;;;11.17;;
14116;SDS011;7137;51.436;6.544;2023-02-28T19:18:36;31.27;;;17.70;;
14116;SDS011;7137;51.436;6.544;2023-02-28T19:21:39;17.00;;;11.60;;
14116;SDS011;7137;51.436;6.544;2023-02-28T19:24:41;19.10;;;13.07;;